createdAt,value
2016-09-29T00:00:09.293Z,1016.73
2016-09-29T00:00:19.286Z,1016.7
2016-09-29T00:00:29.283Z,1016.69
2016-09-29T00:00:39.277Z,1016.76
2016-09-29T00:00:49.273Z,1016.68
2016-09-29T00:00:59.268Z,1016.68
2016-09-29T00:01:09.262Z,1016.73
2016-09-29T00:01:19.258Z,1016.7
2016-09-29T00:01:29.254Z,1016.74
2016-09-29T00:01:39.247Z,1016.7
2016-09-29T00:01:49.242Z,1016.69
2016-09-29T00:01:59.239Z,1016.71
2016-09-29T00:02:09.231Z,1016.73
2016-09-29T00:02:19.230Z,1016.67
2016-09-29T00:02:29.225Z,1016.72
2016-09-29T00:02:39.219Z,1016.65
2016-09-29T00:02:49.215Z,1016.69
2016-09-29T00:02:59.210Z,1016.7
2016-09-29T00:03:09.205Z,1016.67
2016-09-29T00:03:19.200Z,1016.65
2016-09-29T00:03:29.195Z,1016.69
2016-09-29T00:03:39.193Z,1016.67
2016-09-29T00:03:49.184Z,1016.68
2016-09-29T00:03:59.182Z,1016.7
2016-09-29T00:04:09.177Z,1016.65
2016-09-29T00:04:19.170Z,1016.71
2016-09-29T00:04:29.166Z,1016.66
2016-09-29T00:04:39.164Z,1016.68
2016-09-29T00:04:49.158Z,1016.68
2016-09-29T00:04:59.153Z,1016.65
2016-09-29T00:05:09.144Z,1016.64
2016-09-29T00:05:19.147Z,1016.69
2016-09-29T00:05:29.138Z,1016.72
2016-09-29T00:05:39.132Z,1016.68
2016-09-29T00:05:49.127Z,1016.63
2016-09-29T00:05:59.123Z,1016.63
2016-09-29T00:06:09.120Z,1016.67
2016-09-29T00:06:19.114Z,1016.7
2016-09-29T00:06:29.108Z,1016.67
2016-09-29T00:06:39.104Z,1016.67
2016-09-29T00:06:49.098Z,1016.7
2016-09-29T00:06:59.095Z,1016.72
2016-09-29T00:07:09.094Z,1016.65
2016-09-29T00:07:19.087Z,1016.66
2016-09-29T00:07:29.081Z,1016.66
2016-09-29T00:07:39.075Z,1016.68
2016-09-29T00:07:49.071Z,1016.66
2016-09-29T00:07:59.067Z,1016.68
2016-09-29T00:08:09.061Z,1016.68
2016-09-29T00:08:19.054Z,1016.65
2016-09-29T00:08:29.051Z,1016.64
2016-09-29T00:08:39.048Z,1016.67
2016-09-29T00:08:49.040Z,1016.63
2016-09-29T00:08:59.037Z,1016.63
2016-09-29T00:09:09.034Z,1016.72
2016-09-29T00:09:19.027Z,1016.67
2016-09-29T00:09:29.022Z,1016.68
2016-09-29T00:09:39.017Z,1016.67
2016-09-29T00:09:49.014Z,1016.67
2016-09-29T00:09:59.008Z,1016.7
2016-09-29T00:10:09.002Z,1016.69
2016-09-29T00:10:18.999Z,1016.67
2016-09-29T00:10:28.994Z,1016.66
2016-09-29T00:10:38.990Z,1016.63
2016-09-29T00:10:48.986Z,1016.66
2016-09-29T00:10:58.981Z,1016.68
2016-09-29T00:11:08.976Z,1016.61
2016-09-29T00:11:18.971Z,1016.65
2016-09-29T00:11:28.964Z,1016.69
2016-09-29T00:11:38.961Z,1016.61
2016-09-29T00:11:48.955Z,1016.65
2016-09-29T00:11:58.951Z,1016.64
2016-09-29T00:12:08.945Z,1016.66
2016-09-29T00:12:18.941Z,1016.62
2016-09-29T00:12:28.938Z,1016.65
2016-09-29T00:12:38.932Z,1016.64
2016-09-29T00:12:48.927Z,1016.59
2016-09-29T00:12:58.923Z,1016.62
2016-09-29T00:13:08.919Z,1016.62
2016-09-29T00:13:18.913Z,1016.63
2016-09-29T00:13:28.906Z,1016.71
2016-09-29T00:13:38.903Z,1016.67
2016-09-29T00:13:48.898Z,1016.64
2016-09-29T00:13:58.896Z,1016.73
2016-09-29T00:14:08.888Z,1016.62
2016-09-29T00:14:18.884Z,1016.63
2016-09-29T00:14:28.879Z,1016.71
2016-09-29T00:14:38.883Z,1016.65
2016-09-29T00:14:48.870Z,1016.58
2016-09-29T00:14:58.865Z,1016.64
2016-09-29T00:15:08.860Z,1016.58
2016-09-29T00:15:18.857Z,1016.61
2016-09-29T00:15:28.850Z,1016.64
2016-09-29T00:15:38.847Z,1016.59
2016-09-29T00:15:48.840Z,1016.61
2016-09-29T00:15:58.835Z,1016.57
2016-09-29T00:16:08.831Z,1016.59
2016-09-29T00:16:18.827Z,1016.57
2016-09-29T00:16:28.821Z,1016.62
2016-09-29T00:16:38.815Z,1016.62
2016-09-29T00:16:48.812Z,1016.6
2016-09-29T00:16:58.820Z,1016.58
2016-09-29T00:17:08.802Z,1016.6
2016-09-29T00:17:18.805Z,1016.61
2016-09-29T00:17:28.794Z,1016.63
2016-09-29T00:17:38.788Z,1016.59
2016-09-29T00:17:48.783Z,1016.6
2016-09-29T00:17:58.779Z,1016.61
2016-09-29T00:18:08.775Z,1016.58
2016-09-29T00:18:18.770Z,1016.59
2016-09-29T00:18:28.765Z,1016.6
2016-09-29T00:18:38.759Z,1016.56
2016-09-29T00:18:48.754Z,1016.63
2016-09-29T00:18:58.748Z,1016.63
2016-09-29T00:19:08.753Z,1016.6
2016-09-29T00:19:18.741Z,1016.58
2016-09-29T00:19:28.734Z,1016.59
2016-09-29T00:19:38.728Z,1016.6
2016-09-29T00:19:48.724Z,1016.63
2016-09-29T00:19:58.720Z,1016.57
2016-09-29T00:20:08.715Z,1016.64
2016-09-29T00:20:18.712Z,1016.6
2016-09-29T00:20:28.705Z,1016.58
2016-09-29T00:20:38.702Z,1016.59
2016-09-29T00:20:48.698Z,1016.54
2016-09-29T00:20:58.699Z,1016.55
2016-09-29T00:21:08.686Z,1016.53
2016-09-29T00:21:18.681Z,1016.58
2016-09-29T00:21:28.678Z,1016.59
2016-09-29T00:21:38.673Z,1016.57
2016-09-29T00:21:48.669Z,1016.53
2016-09-29T00:21:58.666Z,1016.57
2016-09-29T00:22:08.658Z,1016.57
2016-09-29T00:22:18.655Z,1016.58
2016-09-29T00:22:28.648Z,1016.62
2016-09-29T00:22:38.644Z,1016.61
2016-09-29T00:22:48.641Z,1016.57
2016-09-29T00:22:58.634Z,1016.59
2016-09-29T00:23:08.629Z,1016.58
2016-09-29T00:23:18.624Z,1016.64
2016-09-29T00:23:28.956Z,1016.55
2016-09-29T00:23:38.616Z,1016.53
2016-09-29T00:23:48.609Z,1016.51
2016-09-29T00:23:58.606Z,1016.59
2016-09-29T00:24:08.602Z,1016.61
2016-09-29T00:24:18.596Z,1016.6
2016-09-29T00:24:28.593Z,1016.62
2016-09-29T00:24:38.584Z,1016.57
2016-09-29T00:24:48.582Z,1016.57
2016-09-29T00:24:58.579Z,1016.58
2016-09-29T00:25:08.572Z,1016.54
2016-09-29T00:25:18.568Z,1016.61
2016-09-29T00:25:28.564Z,1016.54
2016-09-29T00:25:38.556Z,1016.59
2016-09-29T00:25:48.553Z,1016.57
2016-09-29T00:25:58.552Z,1016.49
2016-09-29T00:26:08.542Z,1016.58
2016-09-29T00:26:18.538Z,1016.54
2016-09-29T00:26:28.533Z,1016.53
2016-09-29T00:26:38.530Z,1016.52
2016-09-29T00:26:48.524Z,1016.53
2016-09-29T00:26:58.521Z,1016.55
2016-09-29T00:27:08.518Z,1016.53
2016-09-29T00:27:18.509Z,1016.51
2016-09-29T00:27:28.504Z,1016.54
2016-09-29T00:27:38.501Z,1016.58
2016-09-29T00:27:48.494Z,1016.49
2016-09-29T00:27:58.491Z,1016.5
2016-09-29T00:28:08.487Z,1016.51
2016-09-29T00:28:18.481Z,1016.52
2016-09-29T00:28:28.479Z,1016.48
2016-09-29T00:28:38.471Z,1016.54
2016-09-29T00:28:48.467Z,1016.52
2016-09-29T00:28:58.462Z,1016.51
2016-09-29T00:29:08.791Z,1016.47
2016-09-29T00:29:18.452Z,1016.48
2016-09-29T00:29:28.447Z,1016.46
2016-09-29T00:29:38.443Z,1016.48
2016-09-29T00:29:48.439Z,1016.53
2016-09-29T00:29:58.435Z,1016.48
2016-09-29T00:30:08.429Z,1016.48
2016-09-29T00:30:18.425Z,1016.49
2016-09-29T00:30:28.419Z,1016.49
2016-09-29T00:30:38.413Z,1016.47
2016-09-29T00:30:48.415Z,1016.44
2016-09-29T00:30:58.403Z,1016.52
2016-09-29T00:31:08.399Z,1016.46
2016-09-29T00:31:18.396Z,1016.47
2016-09-29T00:31:28.391Z,1016.49
2016-09-29T00:31:38.389Z,1016.5
2016-09-29T00:31:48.391Z,1016.45
2016-09-29T00:31:58.374Z,1016.44
2016-09-29T00:32:08.373Z,1016.44
2016-09-29T00:32:18.366Z,1016.42
2016-09-29T00:32:28.361Z,1016.48
2016-09-29T00:32:38.357Z,1016.46
2016-09-29T00:32:48.350Z,1016.47
2016-09-29T00:32:58.347Z,1016.42
2016-09-29T00:33:08.343Z,1016.42
2016-09-29T00:33:18.337Z,1016.46
2016-09-29T00:33:28.333Z,1016.44
2016-09-29T00:33:38.328Z,1016.43
2016-09-29T00:33:48.321Z,1016.48
2016-09-29T00:33:58.318Z,1016.45
2016-09-29T00:34:08.313Z,1016.36
2016-09-29T00:34:18.308Z,1016.41
2016-09-29T00:34:28.301Z,1016.36
2016-09-29T00:34:38.300Z,1016.36
2016-09-29T00:34:48.305Z,1016.38
2016-09-29T00:34:58.290Z,1016.4
2016-09-29T00:35:08.285Z,1016.46
2016-09-29T00:35:18.280Z,1016.39
2016-09-29T00:35:28.277Z,1016.41
2016-09-29T00:35:38.270Z,1016.39
2016-09-29T00:35:48.264Z,1016.37
2016-09-29T00:35:58.260Z,1016.41
2016-09-29T00:36:08.255Z,1016.42
2016-09-29T00:36:18.250Z,1016.42
2016-09-29T00:36:28.245Z,1016.42
2016-09-29T00:36:38.240Z,1016.35
2016-09-29T00:36:48.237Z,1016.39
2016-09-29T00:36:58.232Z,1016.41
2016-09-29T00:37:08.228Z,1016.37
2016-09-29T00:37:18.222Z,1016.42
2016-09-29T00:37:28.218Z,1016.44
2016-09-29T00:37:38.211Z,1016.39
2016-09-29T00:37:48.208Z,1016.42
2016-09-29T00:37:58.204Z,1016.39
2016-09-29T00:38:08.196Z,1016.4
2016-09-29T00:38:18.195Z,1016.41
2016-09-29T00:38:28.189Z,1016.4
2016-09-29T00:38:38.185Z,1016.43
2016-09-29T00:38:48.180Z,1016.39
2016-09-29T00:38:58.175Z,1016.39
2016-09-29T00:39:08.168Z,1016.41
2016-09-29T00:39:18.170Z,1016.42
2016-09-29T00:39:28.161Z,1016.39
2016-09-29T00:39:38.154Z,1016.41
2016-09-29T00:39:48.150Z,1016.39
2016-09-29T00:39:58.145Z,1016.36
2016-09-29T00:40:08.141Z,1016.37
2016-09-29T00:40:18.137Z,1016.37
2016-09-29T00:40:28.133Z,1016.32
2016-09-29T00:40:38.127Z,1016.33
2016-09-29T00:40:48.120Z,1016.35
2016-09-29T00:40:58.116Z,1016.36
2016-09-29T00:41:08.113Z,1016.31
2016-09-29T00:41:18.108Z,1016.37
2016-09-29T00:41:28.103Z,1016.39
2016-09-29T00:41:38.097Z,1016.3
2016-09-29T00:41:48.093Z,1016.3
2016-09-29T00:41:58.088Z,1016.28
2016-09-29T00:42:08.084Z,1016.31
2016-09-29T00:42:18.079Z,1016.33
2016-09-29T00:42:28.072Z,1016.35
2016-09-29T00:42:38.068Z,1016.32
2016-09-29T00:42:48.064Z,1016.36
2016-09-29T00:42:58.059Z,1016.32
2016-09-29T00:43:08.055Z,1016.32
2016-09-29T00:43:18.050Z,1016.32
2016-09-29T00:43:28.045Z,1016.35
2016-09-29T00:43:38.039Z,1016.31
2016-09-29T00:43:48.034Z,1016.34
2016-09-29T00:43:58.030Z,1016.33
2016-09-29T00:44:08.026Z,1016.31
2016-09-29T00:44:18.020Z,1016.32
2016-09-29T00:44:28.017Z,1016.33
2016-09-29T00:44:38.013Z,1016.36
2016-09-29T00:44:48.006Z,1016.32
2016-09-29T00:44:58.001Z,1016.36
2016-09-29T00:45:08.003Z,1016.28
2016-09-29T00:45:17.992Z,1016.3
2016-09-29T00:45:27.988Z,1016.33
2016-09-29T00:45:37.982Z,1016.3
2016-09-29T00:45:47.980Z,1016.34
2016-09-29T00:45:57.974Z,1016.29
2016-09-29T00:46:07.966Z,1016.28
2016-09-29T00:46:17.963Z,1016.36
2016-09-29T00:46:27.958Z,1016.32
2016-09-29T00:46:37.953Z,1016.27
2016-09-29T00:46:47.950Z,1016.32
2016-09-29T00:46:57.943Z,1016.26
2016-09-29T00:47:07.938Z,1016.27
2016-09-29T00:47:17.935Z,1016.36
2016-09-29T00:47:27.929Z,1016.29
2016-09-29T00:47:37.925Z,1016.19
2016-09-29T00:47:47.920Z,1016.27
2016-09-29T00:47:57.916Z,1016.34
2016-09-29T00:48:07.911Z,1016.27
2016-09-29T00:48:17.906Z,1016.24
2016-09-29T00:48:27.901Z,1016.23
2016-09-29T00:48:37.898Z,1016.22
2016-09-29T00:48:47.892Z,1016.27
2016-09-29T00:48:57.886Z,1016.25
2016-09-29T00:49:07.882Z,1016.19
2016-09-29T00:49:17.877Z,1016.31
2016-09-29T00:49:27.873Z,1016.17
2016-09-29T00:49:37.867Z,1016.22
2016-09-29T00:49:47.863Z,1016.2
2016-09-29T00:49:57.857Z,1016.19
2016-09-29T00:50:07.854Z,1016.22
2016-09-29T00:50:17.848Z,1016.2
2016-09-29T00:50:27.842Z,1016.24
2016-09-29T00:50:37.838Z,1016.21
2016-09-29T00:50:47.834Z,1016.18
2016-09-29T00:50:57.828Z,1016.26
2016-09-29T00:51:07.822Z,1016.18
2016-09-29T00:51:17.820Z,1016.17
2016-09-29T00:51:27.815Z,1016.14
2016-09-29T00:51:37.811Z,1016.15
2016-09-29T00:51:47.803Z,1016.15
2016-09-29T00:51:57.800Z,1016.14
2016-09-29T00:52:07.797Z,1016.12
2016-09-29T00:52:17.790Z,1016.17
2016-09-29T00:52:27.787Z,1016.23
2016-09-29T00:52:37.781Z,1016.21
2016-09-29T00:52:47.775Z,1016.11
2016-09-29T00:52:57.776Z,1016.17
2016-09-29T00:53:07.766Z,1016.16
2016-09-29T00:53:17.762Z,1016.15
2016-09-29T00:53:27.757Z,1016.09
2016-09-29T00:53:37.751Z,1016.13
2016-09-29T00:53:47.748Z,1016.13
2016-09-29T00:53:57.744Z,1016.13
2016-09-29T00:54:07.737Z,1016.07
2016-09-29T00:54:17.734Z,1016.11
2016-09-29T00:54:27.728Z,1016.12
2016-09-29T00:54:37.723Z,1016.09
2016-09-29T00:54:47.720Z,1016.11
2016-09-29T00:54:57.712Z,1016.19
2016-09-29T00:55:07.708Z,1016.12
2016-09-29T00:55:17.705Z,1016.16
2016-09-29T00:55:27.700Z,1016.09
2016-09-29T00:55:37.694Z,1016.05
2016-09-29T00:55:47.690Z,1016.06
2016-09-29T00:55:57.686Z,1016.12
2016-09-29T00:56:07.682Z,1016.03
2016-09-29T00:56:17.677Z,1016.04
2016-09-29T00:56:27.669Z,1016.06
2016-09-29T00:56:37.666Z,1016.07
2016-09-29T00:56:47.663Z,1016.03
2016-09-29T00:56:57.656Z,1016.1
2016-09-29T00:57:07.651Z,1016.06
2016-09-29T00:57:17.647Z,1016.1
2016-09-29T00:57:27.643Z,1016.08
2016-09-29T00:57:37.636Z,1016.09
2016-09-29T00:57:47.634Z,1016.05
2016-09-29T00:57:57.629Z,1016.04
2016-09-29T00:58:07.622Z,1016.03
2016-09-29T00:58:17.616Z,1016.03
2016-09-29T00:58:27.613Z,1016.04
2016-09-29T00:58:37.608Z,1016.02
2016-09-29T00:58:47.604Z,1016.04
2016-09-29T00:58:57.597Z,1016.04
2016-09-29T00:59:07.610Z,1016.06
2016-09-29T00:59:17.596Z,1016.05
2016-09-29T00:59:27.584Z,1015.99
2016-09-29T00:59:37.580Z,1016.02
2016-09-29T00:59:47.573Z,1016.03
2016-09-29T00:59:57.570Z,1015.95
2016-09-29T01:00:07.564Z,1016.04
2016-09-29T01:00:17.561Z,1016.02
2016-09-29T01:00:27.556Z,1016.04
2016-09-29T01:00:37.551Z,1015.99
2016-09-29T01:00:47.549Z,1016
2016-09-29T01:00:57.541Z,1016.04
2016-09-29T01:01:07.870Z,1016.05
2016-09-29T01:01:17.530Z,1016.04
2016-09-29T01:01:27.526Z,1016.04
2016-09-29T01:01:37.520Z,1016.04
2016-09-29T01:01:47.518Z,1016.07
2016-09-29T01:01:57.512Z,1016.04
2016-09-29T01:02:07.509Z,1016.08
2016-09-29T01:02:17.505Z,1016.06
2016-09-29T01:02:27.497Z,1016.11
2016-09-29T01:02:37.497Z,1016.1
2016-09-29T01:02:47.489Z,1016.06
2016-09-29T01:02:57.485Z,1016.07
2016-09-29T01:03:07.478Z,1016.11
2016-09-29T01:03:17.474Z,1016.07
2016-09-29T01:03:27.469Z,1016.05
2016-09-29T01:03:37.464Z,1016.07
2016-09-29T01:03:47.458Z,1016.1
2016-09-29T01:03:57.455Z,1016.13
2016-09-29T01:04:07.448Z,1016.1
2016-09-29T01:04:17.453Z,1016.07
2016-09-29T01:04:27.440Z,1016.04
2016-09-29T01:04:37.437Z,1016.12
2016-09-29T01:04:47.430Z,1016.08
2016-09-29T01:04:57.425Z,1016.07
2016-09-29T01:05:07.754Z,1016.09
2016-09-29T01:05:17.416Z,1016.02
2016-09-29T01:05:27.412Z,1016.06
2016-09-29T01:05:37.407Z,1016.08
2016-09-29T01:05:47.400Z,1016.03
2016-09-29T01:05:57.397Z,1016.09
2016-09-29T01:06:07.392Z,1016.1
2016-09-29T01:06:17.388Z,1016.01
2016-09-29T01:06:27.383Z,1016.08
2016-09-29T01:06:37.378Z,1016.14
2016-09-29T01:06:47.374Z,1015.97
2016-09-29T01:06:57.368Z,1016.01
2016-09-29T01:07:07.364Z,1016.08
2016-09-29T01:07:17.360Z,1016.08
2016-09-29T01:07:27.354Z,1016.02
2016-09-29T01:07:37.349Z,1015.99
2016-09-29T01:07:47.343Z,1015.96
2016-09-29T01:07:57.338Z,1015.99
2016-09-29T01:08:07.334Z,1016
2016-09-29T01:08:17.338Z,1015.96
2016-09-29T01:08:27.324Z,1015.97
2016-09-29T01:08:37.324Z,1015.98
2016-09-29T01:08:47.314Z,1015.98
2016-09-29T01:08:57.311Z,1015.93
2016-09-29T01:09:07.305Z,1015.98
2016-09-29T01:09:17.301Z,1015.96
2016-09-29T01:09:27.296Z,1015.95
2016-09-29T01:09:37.291Z,1015.98
2016-09-29T01:09:47.288Z,1015.91
2016-09-29T01:09:57.283Z,1015.91
2016-09-29T01:10:07.275Z,1015.91
2016-09-29T01:10:17.272Z,1015.92
2016-09-29T01:10:27.268Z,1015.93
2016-09-29T01:10:37.270Z,1015.95
2016-09-29T01:10:47.257Z,1015.92
2016-09-29T01:10:57.253Z,1015.88
2016-09-29T01:11:07.247Z,1015.88
2016-09-29T01:11:17.244Z,1015.95
2016-09-29T01:11:27.237Z,1015.93
2016-09-29T01:11:37.232Z,1015.93
2016-09-29T01:11:47.228Z,1015.88
2016-09-29T01:11:57.223Z,1015.86
2016-09-29T01:12:07.220Z,1015.91
2016-09-29T01:12:17.214Z,1015.9
2016-09-29T01:12:27.210Z,1015.87
2016-09-29T01:12:37.203Z,1015.93
2016-09-29T01:12:47.200Z,1015.93
2016-09-29T01:12:57.198Z,1015.9
2016-09-29T01:13:07.190Z,1015.9
2016-09-29T01:13:17.187Z,1015.86
2016-09-29T01:13:27.181Z,1015.89
2016-09-29T01:13:37.175Z,1015.96
2016-09-29T01:13:47.174Z,1015.93
2016-09-29T01:13:57.167Z,1015.95
2016-09-29T01:14:07.163Z,1015.91
2016-09-29T01:14:17.158Z,1015.96
2016-09-29T01:14:27.151Z,1015.94
2016-09-29T01:14:37.146Z,1015.98
2016-09-29T01:14:47.142Z,1015.93
2016-09-29T01:14:57.136Z,1015.96
2016-09-29T01:15:07.133Z,1016
2016-09-29T01:15:17.127Z,1015.93
2016-09-29T01:15:27.123Z,1016
2016-09-29T01:15:37.119Z,1016.02
2016-09-29T01:15:47.114Z,1015.98
2016-09-29T01:15:57.110Z,1015.97
2016-09-29T01:16:07.105Z,1015.91
2016-09-29T01:16:17.100Z,1015.95
2016-09-29T01:16:27.094Z,1015.92
2016-09-29T01:16:37.089Z,1015.98
2016-09-29T01:16:47.085Z,1015.94
2016-09-29T01:16:57.078Z,1016.01
2016-09-29T01:17:07.075Z,1015.95
2016-09-29T01:17:17.069Z,1015.96
2016-09-29T01:17:27.066Z,1015.99
2016-09-29T01:17:37.059Z,1015.97
2016-09-29T01:17:47.054Z,1015.99
2016-09-29T01:17:57.051Z,1015.99
2016-09-29T01:18:07.381Z,1015.98
2016-09-29T01:18:17.039Z,1016
2016-09-29T01:18:27.039Z,1015.97
2016-09-29T01:18:37.031Z,1016.01
2016-09-29T01:18:47.028Z,1015.9
2016-09-29T01:18:57.019Z,1015.94
2016-09-29T01:19:07.015Z,1015.9
2016-09-29T01:19:17.013Z,1015.92
2016-09-29T01:19:27.007Z,1015.92
2016-09-29T01:19:37.006Z,1015.99
2016-09-29T01:19:46.998Z,1015.96
2016-09-29T01:19:56.991Z,1015.93
2016-09-29T01:20:06.989Z,1015.93
2016-09-29T01:20:16.987Z,1015.9
2016-09-29T01:20:26.980Z,1015.88
2016-09-29T01:20:36.976Z,1015.98
2016-09-29T01:20:46.968Z,1015.94
2016-09-29T01:20:56.964Z,1015.93
2016-09-29T01:21:06.958Z,1015.93
2016-09-29T01:21:16.954Z,1015.94
2016-09-29T01:21:26.950Z,1015.91
2016-09-29T01:21:36.945Z,1015.92
2016-09-29T01:21:46.940Z,1015.88
2016-09-29T01:21:56.935Z,1015.9
2016-09-29T01:22:06.928Z,1015.91
2016-09-29T01:22:16.924Z,1015.88
2016-09-29T01:22:26.920Z,1015.93
2016-09-29T01:22:36.917Z,1015.9
2016-09-29T01:22:46.913Z,1015.88
2016-09-29T01:22:56.905Z,1015.91
2016-09-29T01:23:06.903Z,1015.9
2016-09-29T01:23:16.896Z,1015.93
2016-09-29T01:23:26.893Z,1015.93
2016-09-29T01:23:36.887Z,1015.93
2016-09-29T01:23:46.882Z,1015.94
2016-09-29T01:23:56.891Z,1015.93
2016-09-29T01:24:06.874Z,1015.93
2016-09-29T01:24:16.867Z,1015.92
2016-09-29T01:24:26.862Z,1015.91
2016-09-29T01:24:36.859Z,1015.92
2016-09-29T01:24:46.853Z,1015.96
2016-09-29T01:24:56.851Z,1015.94
2016-09-29T01:25:06.847Z,1015.89
2016-09-29T01:25:16.840Z,1015.9
2016-09-29T01:25:26.833Z,1015.89
2016-09-29T01:25:36.830Z,1015.9
2016-09-29T01:25:46.824Z,1015.9
2016-09-29T01:25:56.820Z,1015.99
2016-09-29T01:26:06.815Z,1015.95
2016-09-29T01:26:16.811Z,1015.9
2016-09-29T01:26:26.804Z,1015.95
2016-09-29T01:26:36.801Z,1015.92
2016-09-29T01:26:46.798Z,1015.93
2016-09-29T01:26:56.791Z,1015.94
2016-09-29T01:27:06.786Z,1015.89
2016-09-29T01:27:16.782Z,1015.87
2016-09-29T01:27:26.775Z,1015.87
2016-09-29T01:27:36.771Z,1015.9
2016-09-29T01:27:46.767Z,1015.89
2016-09-29T01:27:56.760Z,1015.89
2016-09-29T01:28:06.759Z,1015.88
2016-09-29T01:28:16.750Z,1015.94
2016-09-29T01:28:26.747Z,1015.91
2016-09-29T01:28:36.743Z,1015.93
2016-09-29T01:28:46.736Z,1015.93
2016-09-29T01:28:56.733Z,1015.92
2016-09-29T01:29:06.729Z,1015.85
2016-09-29T01:29:16.723Z,1015.91
2016-09-29T01:29:26.720Z,1015.91
2016-09-29T01:29:36.711Z,1015.86
2016-09-29T01:29:46.709Z,1015.85
2016-09-29T01:29:56.705Z,1015.82
2016-09-29T01:30:06.699Z,1015.86
2016-09-29T01:30:16.693Z,1015.83
2016-09-29T01:30:26.694Z,1015.92
2016-09-29T01:30:36.686Z,1015.85
2016-09-29T01:30:46.679Z,1015.89
2016-09-29T01:30:56.675Z,1015.83
2016-09-29T01:31:06.670Z,1015.86
2016-09-29T01:31:16.666Z,1015.81
2016-09-29T01:31:26.660Z,1015.9
2016-09-29T01:31:36.656Z,1015.81
2016-09-29T01:31:46.653Z,1015.84
2016-09-29T01:31:56.647Z,1015.82
2016-09-29T01:32:06.644Z,1015.87
2016-09-29T01:32:16.636Z,1015.85
2016-09-29T01:32:26.632Z,1015.82
2016-09-29T01:32:36.627Z,1015.8
2016-09-29T01:32:46.624Z,1015.83
2016-09-29T01:32:56.618Z,1015.88
2016-09-29T01:33:06.613Z,1015.81
2016-09-29T01:33:16.606Z,1015.84
2016-09-29T01:33:26.604Z,1015.87
2016-09-29T01:33:36.596Z,1015.83
2016-09-29T01:33:46.593Z,1015.85
2016-09-29T01:33:56.588Z,1015.89
2016-09-29T01:34:06.584Z,1015.86
2016-09-29T01:34:16.577Z,1015.84
2016-09-29T01:34:26.573Z,1015.88
2016-09-29T01:34:36.571Z,1015.87
2016-09-29T01:34:46.564Z,1015.88
2016-09-29T01:34:56.559Z,1015.86
2016-09-29T01:35:06.554Z,1015.86
2016-09-29T01:35:16.551Z,1015.83
2016-09-29T01:35:26.545Z,1015.86
2016-09-29T01:35:36.539Z,1015.89
2016-09-29T01:35:46.534Z,1015.89
2016-09-29T01:35:56.531Z,1015.93
2016-09-29T01:36:06.526Z,1015.95
2016-09-29T01:36:16.522Z,1015.86
2016-09-29T01:36:26.516Z,1015.92
2016-09-29T01:36:36.512Z,1015.94
2016-09-29T01:36:46.506Z,1015.93
2016-09-29T01:36:56.505Z,1015.91
2016-09-29T01:37:06.499Z,1015.91
2016-09-29T01:37:16.492Z,1015.93
2016-09-29T01:37:26.487Z,1015.86
2016-09-29T01:37:36.481Z,1015.88
2016-09-29T01:37:46.477Z,1015.91
2016-09-29T01:37:56.589Z,1015.93
2016-09-29T01:38:06.469Z,1015.91
2016-09-29T01:38:16.463Z,1015.91
2016-09-29T01:38:26.459Z,1015.88
2016-09-29T01:38:36.452Z,1015.88
2016-09-29T01:38:46.449Z,1015.92
2016-09-29T01:38:56.443Z,1015.94
2016-09-29T01:39:06.439Z,1015.95
2016-09-29T01:39:16.435Z,1015.89
2016-09-29T01:39:26.430Z,1015.89
2016-09-29T01:39:36.427Z,1015.88
2016-09-29T01:39:46.420Z,1015.9
2016-09-29T01:39:56.415Z,1015.86
2016-09-29T01:40:06.411Z,1015.93
2016-09-29T01:40:16.407Z,1015.9
2016-09-29T01:40:26.400Z,1015.86
2016-09-29T01:40:36.396Z,1015.89
2016-09-29T01:40:46.390Z,1015.96
2016-09-29T01:40:56.388Z,1015.91
2016-09-29T01:41:06.381Z,1015.89
2016-09-29T01:41:16.377Z,1015.93
2016-09-29T01:41:26.373Z,1015.92
2016-09-29T01:41:36.368Z,1015.88
2016-09-29T01:41:46.364Z,1015.91
2016-09-29T01:41:56.356Z,1015.9
2016-09-29T01:42:06.352Z,1015.86
2016-09-29T01:42:16.348Z,1015.91
2016-09-29T01:42:26.343Z,1015.9
2016-09-29T01:42:36.338Z,1015.88
2016-09-29T01:42:46.339Z,1015.93
2016-09-29T01:42:56.327Z,1015.88
2016-09-29T01:43:06.328Z,1015.88
2016-09-29T01:43:16.320Z,1015.9
2016-09-29T01:43:26.313Z,1015.87
2016-09-29T01:43:36.309Z,1015.87
2016-09-29T01:43:46.304Z,1015.89
2016-09-29T01:43:56.301Z,1015.94
2016-09-29T01:44:06.295Z,1015.94
2016-09-29T01:44:16.290Z,1015.87
2016-09-29T01:44:26.285Z,1015.9
2016-09-29T01:44:36.281Z,1015.91
2016-09-29T01:44:46.275Z,1015.97
2016-09-29T01:44:56.272Z,1015.89
2016-09-29T01:45:06.265Z,1015.89
2016-09-29T01:45:16.265Z,1015.95
2016-09-29T01:45:26.257Z,1015.95
2016-09-29T01:45:36.250Z,1015.94
2016-09-29T01:45:46.247Z,1015.97
2016-09-29T01:45:56.241Z,1015.88
2016-09-29T01:46:06.237Z,1015.88
2016-09-29T01:46:16.233Z,1015.97
2016-09-29T01:46:26.227Z,1015.9
2016-09-29T01:46:36.222Z,1015.88
2016-09-29T01:46:46.218Z,1015.88
2016-09-29T01:46:56.214Z,1015.86
2016-09-29T01:47:06.207Z,1015.91
2016-09-29T01:47:16.204Z,1015.84
2016-09-29T01:47:26.199Z,1015.89
2016-09-29T01:47:36.196Z,1015.82
2016-09-29T01:47:46.189Z,1015.87
2016-09-29T01:47:56.184Z,1015.87
2016-09-29T01:48:06.186Z,1015.88
2016-09-29T01:48:16.174Z,1015.9
2016-09-29T01:48:26.169Z,1015.89
2016-09-29T01:48:36.165Z,1015.93
2016-09-29T01:48:46.160Z,1015.9
2016-09-29T01:48:56.155Z,1015.91
2016-09-29T01:49:06.150Z,1015.88
2016-09-29T01:49:16.145Z,1015.89
2016-09-29T01:49:26.141Z,1015.9
2016-09-29T01:49:36.137Z,1015.95
2016-09-29T01:49:46.130Z,1015.91
2016-09-29T01:49:56.125Z,1015.92
2016-09-29T01:50:06.123Z,1015.89
2016-09-29T01:50:16.117Z,1015.92
2016-09-29T01:50:26.112Z,1015.92
2016-09-29T01:50:36.106Z,1015.92
2016-09-29T01:50:46.103Z,1015.89
2016-09-29T01:50:56.098Z,1015.89
2016-09-29T01:51:06.092Z,1015.96
2016-09-29T01:51:16.086Z,1015.97
2016-09-29T01:51:26.083Z,1015.92
2016-09-29T01:51:36.078Z,1015.88
2016-09-29T01:51:46.073Z,1015.92
2016-09-29T01:51:56.067Z,1015.97
2016-09-29T01:52:06.064Z,1015.87
2016-09-29T01:52:16.105Z,1015.89
2016-09-29T01:52:26.054Z,1015.92
2016-09-29T01:52:36.051Z,1015.9
2016-09-29T01:52:46.045Z,1015.91
2016-09-29T01:52:56.040Z,1015.99
2016-09-29T01:53:06.034Z,1015.93
2016-09-29T01:53:16.030Z,1015.95
2016-09-29T01:53:26.025Z,1015.97
2016-09-29T01:53:36.020Z,1015.88
2016-09-29T01:53:46.015Z,1015.91
2016-09-29T01:53:56.012Z,1015.92
2016-09-29T01:54:06.005Z,1015.91
2016-09-29T01:54:16.000Z,1015.92
2016-09-29T01:54:25.996Z,1015.93
2016-09-29T01:54:35.991Z,1015.86
2016-09-29T01:54:45.985Z,1015.89
2016-09-29T01:54:55.983Z,1015.88
2016-09-29T01:55:05.977Z,1015.88
2016-09-29T01:55:15.973Z,1015.88
2016-09-29T01:55:25.968Z,1015.9
2016-09-29T01:55:35.962Z,1015.86
2016-09-29T01:55:45.957Z,1015.91
2016-09-29T01:55:55.952Z,1015.85
2016-09-29T01:56:06.059Z,1015.88
2016-09-29T01:56:15.943Z,1015.9
2016-09-29T01:56:25.936Z,1015.88
2016-09-29T01:56:35.935Z,1015.88
2016-09-29T01:56:45.928Z,1015.88
2016-09-29T01:56:55.925Z,1015.92
2016-09-29T01:57:05.919Z,1015.84
2016-09-29T01:57:15.921Z,1015.84
2016-09-29T01:57:25.910Z,1015.86
2016-09-29T01:57:35.906Z,1015.85
2016-09-29T01:57:45.899Z,1015.85
2016-09-29T01:57:55.895Z,1015.86
2016-09-29T01:58:05.887Z,1015.83
2016-09-29T01:58:15.886Z,1015.87
2016-09-29T01:58:25.879Z,1015.86
2016-09-29T01:58:35.874Z,1015.79
2016-09-29T01:58:45.870Z,1015.8
2016-09-29T01:58:55.866Z,1015.85
2016-09-29T01:59:05.862Z,1015.82
2016-09-29T01:59:15.856Z,1015.78
2016-09-29T01:59:25.851Z,1015.76
2016-09-29T01:59:35.846Z,1015.77
2016-09-29T01:59:45.841Z,1015.82
2016-09-29T01:59:55.852Z,1015.78
2016-09-29T02:00:05.831Z,1015.8
2016-09-29T02:00:15.826Z,1015.83
2016-09-29T02:00:25.824Z,1015.79
2016-09-29T02:00:35.818Z,1015.74
2016-09-29T02:00:45.814Z,1015.78
2016-09-29T02:00:55.808Z,1015.75
2016-09-29T02:01:05.802Z,1015.76
2016-09-29T02:01:15.798Z,1015.78
2016-09-29T02:01:25.794Z,1015.78